createdAt,value
2022-09-10T00:01:59.285Z,5.10
2022-09-10T00:04:27.629Z,4.38
2022-09-10T00:06:55.476Z,6.63
2022-09-10T00:09:22.956Z,5.50
2022-09-10T00:11:50.092Z,5.97
2022-09-10T00:14:18.418Z,4.07
2022-09-10T00:16:45.606Z,9.70
2022-09-10T00:19:12.932Z,4.13
2022-09-10T00:21:40.036Z,3.78
2022-09-10T00:24:07.322Z,3.65
2022-09-10T00:26:38.120Z,4.55
2022-09-10T00:29:06.701Z,5.75
2022-09-10T00:31:34.396Z,5.82
2022-09-10T00:34:02.494Z,3.03
2022-09-10T00:36:32.935Z,4.57
2022-09-10T00:39:02.415Z,5.20
2022-09-10T00:41:29.963Z,5.20
2022-09-10T00:44:06.922Z,2.60
2022-09-10T00:46:44.355Z,5.28
2022-09-10T00:49:23.129Z,5.00
2022-09-10T00:51:52.201Z,3.70
2022-09-10T00:54:20.645Z,4.10
2022-09-10T00:56:49.573Z,4.43
2022-09-10T00:59:18.857Z,4.57
2022-09-10T01:01:46.102Z,5.97
2022-09-10T01:04:13.217Z,3.70
2022-09-10T01:06:40.926Z,5.78
2022-09-10T01:09:08.643Z,3.72
2022-09-10T01:11:39.943Z,5.47
2022-09-10T01:14:16.292Z,5.40
2022-09-10T01:16:57.361Z,4.55
2022-09-10T01:21:51.939Z,4.07
2022-09-10T01:24:37.021Z,5.45
2022-09-10T01:27:22.559Z,5.05
2022-09-10T01:29:56.048Z,3.92
2022-09-10T01:32:27.598Z,5.80
2022-09-10T01:35:14.567Z,4.53
2022-09-10T01:37:43.652Z,4.75
2022-09-10T01:40:11.216Z,5.63
2022-09-10T01:42:39.746Z,4.88
2022-09-10T01:45:07.314Z,4.60
2022-09-10T01:47:53.195Z,3.90
2022-09-10T01:50:26.229Z,5.07
2022-09-10T01:52:59.587Z,5.60
2022-09-10T01:55:27.252Z,3.65
2022-09-10T01:58:04.989Z,6.47
2022-09-10T02:00:33.380Z,5.10
2022-09-10T02:03:02.487Z,4.13
2022-09-10T02:05:30.999Z,4.60
2022-09-10T02:08:03.713Z,4.05
2022-09-10T02:10:30.834Z,5.40
2022-09-10T02:12:58.002Z,3.88
2022-09-10T02:15:28.607Z,4.35
2022-09-10T02:17:56.292Z,5.03
2022-09-10T02:20:23.765Z,5.10
2022-09-10T02:22:52.826Z,4.97
2022-09-10T02:25:20.182Z,5.85
2022-09-10T02:27:47.463Z,4.63
2022-09-10T02:30:14.719Z,4.28
2022-09-10T02:32:42.967Z,5.60
2022-09-10T02:35:10.140Z,4.10
2022-09-10T02:37:37.595Z,9.77
2022-09-10T02:40:05.735Z,3.63
2022-09-10T02:42:34.052Z,5.13
2022-09-10T02:45:01.322Z,4.97
2022-09-10T02:47:28.928Z,3.95
2022-09-10T02:49:56.051Z,5.25
2022-09-10T02:52:23.143Z,9.90
2022-09-10T02:54:50.425Z,4.28
2022-09-10T02:57:17.578Z,5.65
2022-09-10T02:59:44.642Z,5.28
2022-09-10T03:02:11.788Z,4.50
2022-09-10T03:04:39.219Z,10.88
2022-09-10T03:07:06.601Z,7.55
2022-09-10T03:09:35.647Z,4.32
2022-09-10T03:12:02.971Z,6.18
2022-09-10T03:14:31.089Z,5.43
2022-09-10T03:16:58.249Z,5.35
2022-09-10T03:19:25.382Z,5.53
2022-09-10T03:21:53.050Z,5.22
2022-09-10T03:24:20.514Z,4.10
2022-09-10T03:26:47.620Z,4.95
2022-09-10T03:29:15.489Z,9.23
2022-09-10T03:31:43.052Z,4.60
2022-09-10T03:34:12.502Z,7.22
2022-09-10T03:36:39.794Z,4.07
2022-09-10T03:39:06.898Z,8.05
2022-09-10T03:41:34.234Z,6.03
2022-09-10T03:44:01.548Z,4.88
2022-09-10T03:46:28.810Z,8.27
2022-09-10T03:48:56.505Z,7.60
2022-09-10T03:51:23.597Z,6.40
2022-09-10T03:53:50.899Z,5.25
2022-09-10T03:56:20.031Z,4.88
2022-09-10T03:58:49.187Z,5.70
2022-09-10T04:01:19.782Z,5.80
2022-09-10T04:03:47.272Z,4.30
2022-09-10T04:06:16.189Z,5.55
2022-09-10T04:08:46.250Z,5.50
2022-09-10T04:11:14.096Z,6.03
2022-09-10T04:13:41.158Z,5.88
2022-09-10T04:16:08.328Z,5.45
2022-09-10T04:18:35.530Z,6.00
2022-09-10T04:21:02.754Z,5.30
2022-09-10T04:23:30.054Z,4.90
2022-09-10T04:25:57.149Z,7.88
2022-09-10T04:28:24.398Z,5.00
2022-09-10T04:30:51.475Z,4.20
2022-09-10T04:33:18.731Z,6.47
2022-09-10T04:35:46.087Z,8.15
2022-09-10T04:38:13.187Z,6.15
2022-09-10T04:40:40.324Z,5.80
2022-09-10T04:43:08.730Z,5.97
2022-09-10T04:45:36.044Z,7.25
2022-09-10T04:48:06.858Z,6.10
2022-09-10T04:50:34.371Z,5.72
2022-09-10T04:53:01.429Z,5.00
2022-09-10T04:55:28.511Z,7.25
2022-09-10T04:57:55.591Z,4.50
2022-09-10T05:00:22.918Z,5.25
2022-09-10T05:02:50.041Z,7.50
2022-09-10T05:05:17.138Z,5.85
2022-09-10T05:07:44.216Z,5.45
2022-09-10T05:10:11.317Z,4.57
2022-09-10T05:12:41.248Z,5.68
2022-09-10T05:15:11.048Z,5.10
2022-09-10T05:17:38.104Z,6.32
2022-09-10T05:20:07.568Z,6.55
2022-09-10T05:22:40.262Z,12.57
2022-09-10T05:25:07.954Z,9.55
2022-09-10T05:27:35.095Z,7.93
2022-09-10T05:30:02.227Z,9.93
2022-09-10T05:32:32.666Z,10.75
2022-09-10T05:34:59.724Z,12.23
2022-09-10T05:37:28.047Z,6.38
2022-09-10T05:39:55.201Z,8.88
2022-09-10T05:42:22.461Z,9.70
2022-09-10T05:44:49.639Z,4.32
2022-09-10T05:47:16.755Z,8.13
2022-09-10T05:49:46.975Z,4.85
2022-09-10T05:52:14.137Z,6.25
2022-09-10T05:54:41.281Z,7.57
2022-09-10T05:57:08.407Z,6.32
2022-09-10T05:59:36.434Z,10.40
2022-09-10T06:02:03.756Z,5.38
2022-09-10T06:04:31.101Z,6.28
2022-09-10T06:06:58.180Z,6.45
2022-09-10T06:09:25.276Z,7.18
2022-09-10T06:11:53.252Z,8.60
2022-09-10T06:14:20.790Z,6.43
2022-09-10T06:16:49.860Z,10.85
2022-09-10T06:19:17.093Z,6.05
2022-09-10T06:21:44.378Z,4.78
2022-09-10T06:24:11.464Z,5.97
2022-09-10T06:26:38.579Z,6.15
2022-09-10T06:29:06.151Z,6.43
2022-09-10T06:31:34.676Z,5.07
2022-09-10T06:34:02.534Z,9.57
2022-09-10T06:36:29.697Z,6.57
2022-09-10T06:38:58.105Z,8.93
2022-09-10T06:41:25.362Z,9.20
2022-09-10T06:43:52.504Z,5.28
2022-09-10T06:46:54.924Z,6.45
2022-09-10T06:49:07.411Z,5.93
2022-09-10T06:51:34.539Z,4.75
2022-09-10T06:54:02.822Z,6.47
2022-09-10T06:56:30.226Z,5.15
2022-09-10T06:59:00.384Z,5.88
2022-09-10T07:01:29.268Z,4.70
2022-09-10T07:03:57.596Z,5.88
2022-09-10T07:06:25.263Z,8.45
2022-09-10T07:08:56.518Z,6.88
2022-09-10T07:11:23.791Z,4.93
2022-09-10T07:13:54.481Z,5.95
2022-09-10T07:16:22.443Z,6.15
2022-09-10T07:18:50.523Z,4.63
2022-09-10T07:21:18.467Z,4.90
2022-09-10T07:23:48.382Z,4.53
2022-09-10T07:26:16.935Z,6.70
2022-09-10T07:28:44.433Z,3.97
2022-09-10T07:31:28.813Z,4.43
2022-09-10T07:33:57.626Z,6.57
2022-09-10T07:38:52.693Z,5.03
2022-09-10T07:41:19.829Z,4.65
2022-09-10T07:43:47.186Z,4.45
2022-09-10T07:46:20.517Z,6.78
2022-09-10T07:48:48.616Z,5.60
2022-09-10T07:51:19.214Z,5.97
2022-09-10T07:53:50.533Z,6.68
2022-09-10T07:56:17.975Z,5.90
2022-09-10T07:58:45.151Z,4.90
2022-09-10T08:01:12.845Z,6.50
2022-09-10T08:03:40.494Z,5.25
2022-09-10T08:06:09.035Z,5.70
2022-09-10T08:08:38.266Z,7.18
2022-09-10T08:11:09.849Z,4.47
2022-09-10T08:13:42.286Z,5.30
2022-09-10T08:16:10.841Z,4.35
2022-09-10T08:18:38.292Z,4.95
2022-09-10T08:21:07.524Z,5.55
2022-09-10T08:23:35.935Z,4.68
2022-09-10T08:26:04.414Z,4.53
2022-09-10T08:28:31.575Z,3.90
2022-09-10T08:31:07.690Z,5.57
2022-09-10T08:33:35.675Z,5.68
2022-09-10T08:36:04.712Z,4.57
2022-09-10T08:38:33.217Z,5.45
2022-09-10T08:41:01.401Z,4.68
2022-09-10T08:43:49.598Z,3.60
2022-09-10T08:46:22.633Z,4.30
2022-09-10T08:48:55.139Z,4.50
2022-09-10T08:51:31.163Z,5.15
2022-09-10T08:53:59.973Z,4.95
2022-09-10T08:58:56.927Z,6.15
2022-09-10T09:01:32.189Z,7.63
2022-09-10T09:04:02.607Z,5.40
2022-09-10T09:06:39.486Z,5.95
2022-09-10T09:09:06.652Z,4.47
2022-09-10T09:11:38.553Z,4.32
2022-09-10T09:14:22.431Z,5.43
2022-09-10T09:17:01.892Z,5.85
2022-09-10T09:19:38.862Z,6.25
2022-09-10T09:22:29.068Z,4.15
2022-09-10T09:25:00.763Z,5.28
2022-09-10T09:27:30.637Z,6.28
2022-09-10T09:30:02.114Z,5.80
2022-09-10T09:32:31.304Z,5.65
2022-09-10T09:35:05.635Z,5.65
2022-09-10T09:37:34.613Z,7.00
2022-09-10T09:40:12.526Z,6.63
2022-09-10T09:42:49.753Z,6.45
2022-09-10T09:45:30.359Z,4.32
2022-09-10T09:47:57.976Z,4.85
2022-09-10T09:50:25.154Z,5.55
2022-09-10T09:52:55.136Z,6.90
2022-09-10T09:55:27.314Z,3.60
2022-09-10T09:58:14.335Z,8.63
2022-09-10T10:00:41.463Z,6.45
2022-09-10T10:03:15.430Z,5.35
2022-09-10T10:05:42.845Z,4.30
2022-09-10T10:08:42.290Z,4.00
2022-09-10T10:13:40.649Z,3.97
2022-09-10T10:16:48.531Z,4.20
2022-09-10T10:19:27.701Z,3.85
2022-09-10T10:21:54.945Z,5.72
2022-09-10T10:24:30.495Z,5.13
2022-09-10T10:26:58.671Z,4.30
2022-09-10T10:29:26.284Z,6.07
2022-09-10T10:31:53.690Z,5.00
2022-09-10T10:34:29.963Z,5.55
2022-09-10T10:37:15.993Z,7.03
2022-09-10T10:40:01.982Z,6.28
2022-09-10T10:42:35.425Z,5.55
2022-09-10T10:45:22.783Z,4.47
2022-09-10T10:48:25.484Z,4.78
2022-09-10T10:51:05.013Z,3.95
2022-09-10T10:53:38.485Z,7.78
2022-09-10T10:56:05.587Z,4.80
2022-09-10T10:58:53.457Z,3.75
2022-09-10T11:01:25.211Z,5.18
2022-09-10T11:03:56.050Z,4.10
2022-09-10T11:06:24.915Z,4.28
2022-09-10T11:08:57.678Z,5.55
2022-09-10T11:11:34.229Z,5.20
2022-09-10T11:14:07.838Z,4.97
2022-09-10T11:16:41.544Z,4.68
2022-09-10T11:19:18.514Z,6.70
2022-09-10T11:21:53.320Z,3.80
2022-09-10T11:24:20.452Z,5.60
2022-09-10T11:26:54.295Z,7.85
2022-09-10T11:29:25.360Z,5.28
2022-09-10T11:31:56.628Z,5.32
2022-09-10T11:34:49.316Z,4.75
2022-09-10T11:37:31.393Z,7.72
2022-09-10T11:40:01.103Z,5.75
2022-09-10T11:42:28.236Z,5.85
2022-09-10T11:45:05.671Z,5.00
2022-09-10T11:47:56.285Z,4.32
2022-09-10T11:50:32.361Z,4.22
2022-09-10T11:53:01.989Z,4.28
2022-09-10T11:55:50.007Z,6.45
2022-09-10T11:58:36.033Z,8.18
2022-09-10T12:01:21.525Z,4.18
2022-09-10T12:03:58.103Z,5.97
2022-09-10T12:06:32.169Z,6.05
2022-09-10T12:09:19.483Z,6.60
2022-09-10T12:11:47.972Z,4.80
2022-09-10T12:14:16.850Z,6.43
2022-09-10T12:16:49.151Z,3.78
2022-09-10T12:19:22.608Z,5.28
2022-09-10T12:21:51.647Z,5.22
2022-09-10T12:24:25.651Z,5.45
2022-09-10T12:26:53.204Z,4.47
2022-09-10T12:29:31.003Z,5.03
2022-09-10T12:32:10.338Z,6.07
2022-09-10T12:34:37.742Z,3.80
2022-09-10T12:37:04.786Z,5.03
2022-09-10T12:39:32.148Z,5.00
2022-09-10T12:42:00.466Z,3.40
2022-09-10T12:44:29.853Z,4.00
2022-09-10T12:47:15.801Z,5.30
2022-09-10T12:49:49.330Z,5.05
2022-09-10T12:52:39.589Z,6.00
2022-09-10T12:55:22.146Z,7.03
2022-09-10T12:58:01.208Z,4.22
2022-09-10T13:00:32.604Z,3.65
2022-09-10T13:03:05.756Z,5.53
2022-09-10T13:05:38.685Z,4.57
2022-09-10T13:08:27.422Z,5.35
2022-09-10T13:10:58.920Z,4.30
2022-09-10T13:13:35.294Z,4.50
2022-09-10T13:16:03.590Z,5.70
2022-09-10T13:18:33.963Z,4.53
2022-09-10T13:21:21.044Z,5.00
2022-09-10T13:26:34.087Z,4.68
2022-09-10T13:29:02.583Z,18.10
2022-09-10T13:31:31.562Z,33.15
2022-09-10T13:34:01.679Z,38.45
2022-09-10T13:36:34.564Z,56.72
2022-09-10T13:39:12.366Z,68.50
2022-09-10T13:41:48.539Z,48.88
2022-09-10T13:44:16.021Z,44.78
2022-09-10T13:46:45.875Z,43.40
2022-09-10T13:49:31.202Z,55.40
2022-09-10T13:51:59.674Z,59.80
2022-09-10T13:54:51.457Z,62.40
2022-09-10T13:57:21.137Z,56.47
2022-09-10T13:59:52.657Z,61.17
2022-09-10T14:02:21.281Z,57.42
2022-09-10T14:04:48.678Z,53.50
2022-09-10T14:07:23.598Z,55.25
2022-09-10T14:12:19.598Z,39.10
2022-09-10T14:14:48.878Z,60.22
2022-09-10T14:17:20.995Z,47.65
2022-09-10T14:19:52.036Z,50.90
2022-09-10T14:22:24.979Z,49.00
2022-09-10T14:24:54.607Z,36.00
2022-09-10T14:27:34.765Z,47.55
2022-09-10T14:30:23.314Z,44.53
2022-09-10T14:32:51.940Z,43.88
2022-09-10T14:35:38.137Z,45.28
2022-09-10T14:38:21.088Z,39.80
2022-09-10T14:40:49.568Z,43.67
2022-09-10T14:43:26.507Z,39.97
2022-09-10T14:45:53.668Z,39.25
2022-09-10T14:48:40.011Z,33.72
2022-09-10T14:51:14.424Z,34.42
2022-09-10T14:53:42.664Z,32.63
2022-09-10T14:56:13.792Z,33.60
2022-09-10T14:58:40.876Z,31.50
2022-09-10T15:01:09.310Z,31.38
2022-09-10T15:03:38.430Z,28.10
2022-09-10T15:06:05.623Z,25.88
2022-09-10T15:08:32.680Z,25.67
2022-09-10T15:11:00.582Z,24.70
2022-09-10T15:13:27.648Z,21.85
2022-09-10T15:15:55.893Z,25.35
2022-09-10T15:18:23.084Z,21.00
2022-09-10T15:20:50.595Z,23.15
2022-09-10T15:23:19.199Z,24.73
2022-09-10T15:25:50.499Z,21.77
2022-09-10T15:28:17.551Z,15.85
2022-09-10T15:30:44.652Z,16.85
2022-09-10T15:33:14.557Z,15.50
2022-09-10T15:35:41.683Z,21.70
2022-09-10T15:38:12.087Z,14.27
2022-09-10T15:40:39.204Z,8.68
2022-09-10T15:43:06.368Z,12.55
2022-09-10T15:45:37.426Z,12.15
2022-09-10T15:48:05.409Z,10.77
2022-09-10T15:50:32.542Z,11.40
2022-09-10T15:53:00.120Z,9.75
2022-09-10T15:55:31.465Z,7.90
2022-09-10T15:57:58.554Z,9.45
2022-09-10T16:00:25.822Z,8.05
2022-09-10T16:02:53.954Z,9.70
2022-09-10T16:05:21.468Z,9.75
2022-09-10T16:07:49.633Z,10.80
2022-09-10T16:10:17.043Z,7.30
2022-09-10T16:12:44.234Z,7.28
2022-09-10T16:15:13.902Z,6.65
2022-09-10T16:17:40.989Z,6.43
2022-09-10T16:20:08.411Z,7.38
2022-09-10T16:22:35.520Z,5.97
2022-09-10T16:25:04.848Z,7.15
2022-09-10T16:27:31.924Z,5.50
2022-09-10T16:29:58.986Z,7.05
2022-09-10T16:32:26.078Z,6.70
2022-09-10T16:34:53.139Z,7.50
2022-09-10T16:37:21.466Z,6.05
2022-09-10T16:39:48.640Z,6.53
2022-09-10T16:42:15.887Z,7.35
2022-09-10T16:44:45.726Z,4.63
2022-09-10T16:47:14.132Z,6.55
2022-09-10T16:49:41.417Z,4.60
2022-09-10T16:52:08.671Z,6.93
2022-09-10T16:54:38.312Z,6.68
2022-09-10T16:57:05.483Z,6.75
2022-09-10T16:59:32.576Z,5.95
2022-09-10T17:02:00.548Z,6.05
2022-09-10T17:04:29.354Z,7.20
2022-09-10T17:06:57.503Z,6.05
2022-09-10T17:09:25.050Z,4.22
2022-09-10T17:11:55.029Z,5.03
2022-09-10T17:14:25.072Z,6.82
2022-09-10T17:16:52.251Z,5.43
2022-09-10T17:19:21.248Z,5.10
2022-09-10T17:21:51.528Z,4.93
2022-09-10T17:24:19.363Z,5.13
2022-09-10T17:26:46.560Z,5.05
2022-09-10T17:29:15.891Z,5.03
2022-09-10T17:31:43.187Z,5.60
2022-09-10T17:34:13.220Z,4.00
2022-09-10T17:36:40.757Z,5.15
2022-09-10T17:39:08.108Z,5.65
2022-09-10T17:41:35.342Z,4.60
2022-09-10T17:44:02.606Z,4.53
2022-09-10T17:46:31.251Z,4.35
2022-09-10T17:49:02.096Z,6.85
2022-09-10T17:51:30.800Z,5.32
2022-09-10T17:53:58.589Z,5.25
2022-09-10T17:56:26.484Z,4.78
2022-09-10T17:58:57.929Z,21.23
2022-09-10T18:01:26.200Z,19.90
2022-09-10T18:03:53.829Z,9.23
2022-09-10T18:06:21.608Z,14.75
2022-09-10T18:08:50.886Z,6.15
2022-09-10T18:11:22.749Z,4.75
2022-09-10T18:13:52.040Z,5.95
2022-09-10T18:16:21.465Z,12.07
2022-09-10T18:18:53.960Z,8.63
2022-09-10T18:21:23.891Z,7.43
2022-09-10T18:23:52.762Z,5.30
2022-09-10T18:28:55.256Z,10.43
2022-09-10T18:31:23.327Z,8.85
2022-09-10T18:33:50.610Z,9.43
2022-09-10T18:36:18.795Z,6.82
2022-09-10T18:38:46.993Z,6.07
2022-09-10T18:41:24.851Z,8.30
2022-09-10T18:43:52.973Z,6.32
2022-09-10T18:46:20.789Z,9.23
2022-09-10T18:48:48.819Z,6.40
2022-09-10T18:51:16.982Z,6.00
2022-09-10T18:53:45.236Z,6.03
2022-09-10T18:56:16.486Z,5.40
2022-09-10T18:58:48.411Z,5.07
2022-09-10T19:01:15.610Z,5.43
2022-09-10T19:03:43.974Z,6.05
2022-09-10T19:06:11.822Z,4.72
2022-09-10T19:08:39.234Z,6.95
2022-09-10T19:11:08.814Z,6.97
2022-09-10T19:13:36.305Z,4.82
2022-09-10T19:16:04.589Z,4.72
2022-09-10T19:18:32.724Z,5.63
2022-09-10T19:21:03.130Z,6.65
2022-09-10T19:23:30.281Z,5.38
2022-09-10T19:25:58.806Z,6.65
2022-09-10T19:28:25.947Z,6.63
2022-09-10T19:30:53.371Z,5.50
2022-09-10T19:33:20.934Z,4.22
2022-09-10T19:35:48.236Z,5.68
2022-09-10T19:38:36.292Z,4.43
2022-09-10T19:41:03.564Z,5.53
2022-09-10T19:43:30.686Z,7.20
2022-09-10T19:45:57.903Z,6.05
2022-09-10T19:48:25.072Z,5.82
2022-09-10T19:50:52.531Z,6.82
2022-09-10T19:53:20.215Z,5.70
2022-09-10T19:55:49.053Z,6.07
2022-09-10T19:58:18.247Z,5.82
2022-09-10T20:00:47.428Z,6.20
2022-09-10T20:03:15.096Z,5.50
2022-09-10T20:05:46.165Z,4.20
2022-09-10T20:08:13.578Z,4.70
2022-09-10T20:10:40.627Z,3.95
2022-09-10T20:13:08.330Z,5.53
2022-09-10T20:15:41.273Z,4.90
2022-09-10T20:18:12.090Z,4.72
2022-09-10T20:20:39.174Z,5.03
2022-09-10T20:23:06.319Z,5.68
2022-09-10T20:25:36.091Z,4.15
2022-09-10T20:28:03.320Z,4.40
2022-09-10T20:30:30.929Z,6.18
2022-09-10T20:32:58.446Z,5.10
2022-09-10T20:35:25.658Z,5.85
2022-09-10T20:37:52.733Z,5.10
2022-09-10T20:40:19.836Z,5.95
2022-09-10T20:42:47.004Z,4.60
2022-09-10T20:45:14.148Z,4.18
2022-09-10T20:47:42.967Z,5.10
2022-09-10T20:52:37.740Z,11.43
2022-09-10T20:55:05.692Z,8.98
2022-09-10T20:57:32.900Z,5.53
2022-09-10T21:00:00.022Z,6.72
2022-09-10T21:02:27.209Z,5.32
2022-09-10T21:04:54.575Z,6.50
2022-09-10T21:07:21.654Z,7.32
2022-09-10T21:09:48.827Z,5.47
2022-09-10T21:12:16.098Z,5.22
2022-09-10T21:14:43.246Z,7.05
2022-09-10T21:17:10.568Z,5.93
2022-09-10T21:19:37.746Z,9.50
2022-09-10T21:22:04.882Z,7.38
2022-09-10T21:24:31.958Z,7.28
2022-09-10T21:26:59.356Z,5.57
2022-09-10T21:29:26.640Z,5.63
2022-09-10T21:31:56.007Z,6.18
2022-09-10T21:34:23.644Z,5.38
2022-09-10T21:36:51.311Z,7.90
2022-09-10T21:39:18.707Z,7.82
2022-09-10T21:41:49.719Z,8.18
2022-09-10T21:44:18.564Z,6.35
2022-09-10T21:49:13.345Z,5.85
2022-09-10T21:51:41.355Z,6.28
2022-09-10T21:54:11.699Z,5.35
2022-09-10T21:56:38.887Z,5.68
2022-09-10T21:59:05.967Z,5.90
2022-09-10T22:01:33.195Z,6.05
2022-09-10T22:04:01.413Z,8.05
2022-09-10T22:06:32.793Z,6.00
2022-09-10T22:09:01.593Z,7.07
2022-09-10T22:14:01.150Z,6.15
2022-09-10T22:16:29.262Z,5.30
2022-09-10T22:18:57.006Z,5.55
2022-09-10T22:21:24.996Z,5.90
2022-09-10T22:23:52.223Z,4.30
2022-09-10T22:26:20.629Z,5.90
2022-09-10T22:28:53.876Z,5.15
2022-09-10T22:31:24.956Z,6.57
2022-09-10T22:33:53.627Z,4.63
2022-09-10T22:36:24.725Z,5.90
2022-09-10T22:38:52.779Z,5.45
2022-09-10T22:41:19.910Z,6.95
2022-09-10T22:43:47.092Z,7.80
2022-09-10T22:46:14.274Z,5.45
2022-09-10T22:48:45.535Z,6.03
2022-09-10T22:51:17.767Z,5.50
2022-09-10T22:53:45.646Z,5.85
2022-09-10T22:56:13.626Z,5.68
2022-09-10T22:58:41.009Z,5.60
2022-09-10T23:01:27.961Z,5.10
2022-09-10T23:03:59.346Z,4.43
2022-09-10T23:06:28.264Z,5.30
2022-09-10T23:08:56.967Z,5.70
2022-09-10T23:11:26.212Z,7.50
2022-09-10T23:14:01.264Z,5.72
2022-09-10T23:16:31.034Z,5.10
2022-09-10T23:18:59.844Z,5.68
2022-09-10T23:23:56.022Z,5.15
2022-09-10T23:26:23.663Z,6.25
2022-09-10T23:28:50.820Z,6.60
2022-09-10T23:31:23.929Z,5.63
2022-09-10T23:33:54.932Z,6.47
2022-09-10T23:36:22.547Z,4.43
2022-09-10T23:38:49.625Z,5.30
2022-09-10T23:41:17.050Z,5.50
2022-09-10T23:43:44.478Z,5.80
2022-09-10T23:46:12.109Z,5.85
2022-09-10T23:48:39.706Z,6.53
2022-09-10T23:51:06.890Z,5.93
2022-09-10T23:53:34.383Z,6.80
2022-09-10T23:56:02.942Z,6.18
2022-09-10T23:58:30.092Z,5.50
